createdAt,value
2019-03-20T00:00:38.714Z,3.80
2019-03-20T00:03:08.209Z,3.80
2019-03-20T00:05:37.708Z,3.70
2019-03-20T00:08:07.226Z,3.70
2019-03-20T00:10:37.692Z,3.70
2019-03-20T00:13:07.221Z,3.70
2019-03-20T00:15:37.005Z,3.60
2019-03-20T00:18:06.503Z,3.60
2019-03-20T00:20:36.029Z,3.50
2019-03-20T00:23:05.520Z,3.50
2019-03-20T00:25:35.024Z,3.50
2019-03-20T00:28:04.638Z,3.50
2019-03-20T00:30:34.128Z,3.50
2019-03-20T00:33:03.656Z,3.50
2019-03-20T00:35:33.166Z,3.60
2019-03-20T00:38:03.214Z,3.60
2019-03-20T00:40:32.694Z,3.60
2019-03-20T00:43:02.195Z,3.60
2019-03-20T00:45:31.721Z,3.60
2019-03-20T00:48:01.213Z,3.60
2019-03-20T00:50:30.709Z,3.60
2019-03-20T00:53:00.233Z,3.60
2019-03-20T00:55:29.729Z,3.60
2019-03-20T00:57:59.220Z,3.70
2019-03-20T01:00:29.335Z,3.60
2019-03-20T01:02:58.840Z,3.60
2019-03-20T01:05:28.411Z,3.70
2019-03-20T01:07:57.958Z,3.70
2019-03-20T01:10:27.462Z,3.60
2019-03-20T01:12:56.965Z,3.70
2019-03-20T01:15:26.567Z,3.60
2019-03-20T01:17:56.070Z,3.60
2019-03-20T01:20:25.669Z,3.60
2019-03-20T01:22:55.320Z,3.60
2019-03-20T01:25:24.973Z,3.60
2019-03-20T01:27:54.472Z,3.60
2019-03-20T01:30:34.021Z,3.60
2019-03-20T01:33:13.480Z,3.60
2019-03-20T01:35:43.108Z,3.60
2019-03-20T01:38:12.664Z,3.50
2019-03-20T01:40:43.141Z,3.50
2019-03-20T01:43:12.673Z,3.50
2019-03-20T01:45:42.374Z,3.50
2019-03-20T01:48:11.865Z,3.40
2019-03-20T01:50:41.417Z,3.30
2019-03-20T01:53:10.904Z,3.20
2019-03-20T01:55:40.405Z,3.20
2019-03-20T01:58:09.926Z,3.20
2019-03-20T02:00:39.423Z,3.20
2019-03-20T02:03:08.943Z,3.10
2019-03-20T02:05:38.453Z,3.10
2019-03-20T02:08:07.983Z,3.10
2019-03-20T02:10:37.472Z,3.10
2019-03-20T02:13:07.010Z,3.00
2019-03-20T02:15:39.342Z,3.00
2019-03-20T02:18:07.723Z,3.00
2019-03-20T02:20:37.248Z,2.90
2019-03-20T02:23:06.776Z,2.90
2019-03-20T02:25:36.269Z,2.90
2019-03-20T02:28:05.756Z,2.90
2019-03-20T02:30:35.287Z,2.90
2019-03-20T02:33:04.946Z,2.90
2019-03-20T02:35:34.457Z,2.90
2019-03-20T02:38:04.054Z,3.00
2019-03-20T02:40:33.573Z,3.10
2019-03-20T02:43:03.068Z,3.10
2019-03-20T02:45:32.580Z,3.20
2019-03-20T02:48:02.102Z,3.20
2019-03-20T02:50:31.605Z,3.20
2019-03-20T02:53:01.211Z,3.20
2019-03-20T02:55:30.789Z,3.20
2019-03-20T02:58:00.420Z,3.20
2019-03-20T03:00:29.967Z,3.20
2019-03-20T03:02:59.521Z,3.10
2019-03-20T03:05:29.019Z,3.10
2019-03-20T03:07:58.534Z,3.10
2019-03-20T03:10:29.058Z,3.10
2019-03-20T03:12:58.550Z,3.10
2019-03-20T03:15:28.062Z,3.20
2019-03-20T03:17:57.574Z,3.20
2019-03-20T03:20:27.075Z,3.20
2019-03-20T03:22:56.597Z,3.10
2019-03-20T03:25:26.089Z,3.10
2019-03-20T03:27:55.608Z,3.10
2019-03-20T03:30:25.978Z,3.10
2019-03-20T03:32:55.510Z,3.10
2019-03-20T03:35:25.065Z,3.20
2019-03-20T03:37:56.258Z,3.20
2019-03-20T03:40:25.847Z,3.10
2019-03-20T03:42:55.442Z,3.10
2019-03-20T03:45:24.976Z,3.20
2019-03-20T03:47:54.495Z,3.10
2019-03-20T03:50:24.015Z,3.10
2019-03-20T03:52:53.534Z,3.20
2019-03-20T03:55:23.097Z,3.20
2019-03-20T03:57:52.657Z,3.20
2019-03-20T04:00:22.335Z,3.20
2019-03-20T04:02:51.971Z,3.20
2019-03-20T04:05:21.512Z,3.20
2019-03-20T04:07:51.032Z,3.30
2019-03-20T04:10:20.626Z,3.30
2019-03-20T04:12:50.142Z,3.30
2019-03-20T04:15:19.776Z,3.30
2019-03-20T04:17:50.217Z,3.40
2019-03-20T04:20:20.948Z,3.40
2019-03-20T04:22:50.480Z,3.40
2019-03-20T04:25:19.970Z,3.50
2019-03-20T04:27:49.501Z,3.60
2019-03-20T04:30:19.665Z,3.60
2019-03-20T04:32:49.161Z,3.60
2019-03-20T04:35:18.689Z,3.60
2019-03-20T04:37:48.193Z,3.70
2019-03-20T04:40:18.433Z,3.80
2019-03-20T04:42:48.024Z,3.80
2019-03-20T04:45:17.677Z,3.90
2019-03-20T04:47:47.160Z,3.90
2019-03-20T04:50:17.263Z,4.00
2019-03-20T04:52:46.757Z,4.10
2019-03-20T04:55:16.421Z,4.10
2019-03-20T04:57:46.206Z,4.20
2019-03-20T05:00:19.725Z,4.20
2019-03-20T05:02:49.223Z,4.30
2019-03-20T05:05:18.814Z,4.40
2019-03-20T05:07:48.295Z,4.50
2019-03-20T05:10:18.905Z,4.40
2019-03-20T05:12:48.419Z,4.50
2019-03-20T05:15:17.936Z,4.50
2019-03-20T05:17:47.462Z,4.50
2019-03-20T05:20:18.959Z,4.50
2019-03-20T05:22:48.441Z,4.50
2019-03-20T05:25:18.048Z,4.50
2019-03-20T05:27:47.528Z,4.50
2019-03-20T05:30:17.105Z,4.60
2019-03-20T05:32:46.613Z,4.60
2019-03-20T05:35:16.274Z,4.60
2019-03-20T05:37:45.842Z,4.80
2019-03-20T05:40:17.531Z,4.80
2019-03-20T05:42:47.103Z,4.70
2019-03-20T05:45:19.713Z,4.80
2019-03-20T05:47:49.235Z,4.80
2019-03-20T05:50:18.796Z,4.90
2019-03-20T05:52:48.451Z,5.00
2019-03-20T05:55:17.977Z,5.00
2019-03-20T05:57:47.474Z,5.00
2019-03-20T06:00:21.791Z,5.10
2019-03-20T06:02:51.312Z,5.00
2019-03-20T06:05:20.805Z,5.10
2019-03-20T06:07:50.328Z,5.10
2019-03-20T06:10:20.778Z,5.20
2019-03-20T06:12:50.445Z,5.20
2019-03-20T06:15:19.971Z,5.20
2019-03-20T06:17:49.458Z,5.30
2019-03-20T06:20:18.981Z,5.30
2019-03-20T06:22:48.477Z,5.30
2019-03-20T06:25:21.150Z,5.20
2019-03-20T06:27:49.205Z,5.30
2019-03-20T06:30:19.541Z,5.30
2019-03-20T06:32:49.023Z,5.30
2019-03-20T06:35:18.733Z,5.40
2019-03-20T06:37:48.272Z,5.40
2019-03-20T06:40:18.155Z,5.50
2019-03-20T06:42:47.664Z,5.50
2019-03-20T06:45:19.191Z,5.60
2019-03-20T06:47:48.688Z,5.60
2019-03-20T06:50:19.134Z,5.70
2019-03-20T06:52:48.658Z,5.70
2019-03-20T06:55:18.221Z,5.80
2019-03-20T06:57:47.732Z,5.80
2019-03-20T07:00:41.122Z,5.90
2019-03-20T07:03:43.457Z,5.90
2019-03-20T07:06:34.200Z,6.00
2019-03-20T07:09:18.480Z,6.10
2019-03-20T07:11:48.005Z,6.20
2019-03-20T07:14:17.492Z,6.30
2019-03-20T07:16:46.998Z,6.40
2019-03-20T07:19:16.518Z,6.40
2019-03-20T07:21:46.013Z,6.40
2019-03-20T07:24:15.532Z,6.50
2019-03-20T07:26:45.399Z,6.70
2019-03-20T07:29:14.903Z,6.80
2019-03-20T07:31:44.426Z,7.00
2019-03-20T07:34:14.492Z,7.20
2019-03-20T07:36:43.998Z,7.30
2019-03-20T07:39:13.506Z,7.40
2019-03-20T07:41:43.009Z,7.40
2019-03-20T07:44:12.504Z,7.50
2019-03-20T07:46:42.089Z,7.50
2019-03-20T07:49:11.584Z,7.60
2019-03-20T07:51:41.087Z,7.70
2019-03-20T07:54:10.610Z,7.80
2019-03-20T07:56:40.112Z,7.80
2019-03-20T07:59:09.614Z,8.00
2019-03-20T08:01:39.133Z,8.10
2019-03-20T08:04:08.625Z,8.10
2019-03-20T08:06:38.144Z,8.20
2019-03-20T08:09:08.003Z,8.30
2019-03-20T08:11:37.497Z,8.30
2019-03-20T08:14:07.038Z,8.30
2019-03-20T08:16:36.551Z,8.40
2019-03-20T08:19:06.076Z,8.50
2019-03-20T08:21:35.589Z,8.50
2019-03-20T08:24:05.190Z,8.60
2019-03-20T08:26:34.703Z,8.60
2019-03-20T08:29:04.269Z,8.60
2019-03-20T08:31:34.157Z,8.70
2019-03-20T08:34:04.119Z,8.70
2019-03-20T08:36:33.630Z,8.80
2019-03-20T08:39:04.592Z,8.90
2019-03-20T08:41:34.107Z,9.00
2019-03-20T08:44:03.762Z,9.00
2019-03-20T08:46:33.276Z,9.10
2019-03-20T08:49:02.888Z,9.20
2019-03-20T08:51:32.383Z,9.10
2019-03-20T08:54:01.873Z,9.20
2019-03-20T08:56:31.670Z,9.20
2019-03-20T08:59:02.107Z,9.20
2019-03-20T09:01:31.617Z,9.30
2019-03-20T09:04:01.113Z,9.30
2019-03-20T09:06:30.624Z,9.40
2019-03-20T09:09:00.120Z,9.60
2019-03-20T09:11:29.644Z,9.60
2019-03-20T09:13:59.145Z,9.70
2019-03-20T09:16:29.660Z,9.90
2019-03-20T09:18:59.191Z,10.00
2019-03-20T09:21:28.684Z,10.20
2019-03-20T09:23:58.178Z,10.30
2019-03-20T09:26:27.732Z,10.40
2019-03-20T09:28:57.246Z,10.50
2019-03-20T09:31:26.745Z,10.50
2019-03-20T09:33:56.354Z,10.50
2019-03-20T09:36:25.866Z,10.60
2019-03-20T09:38:55.375Z,10.70
2019-03-20T09:41:24.903Z,10.80
2019-03-20T09:43:54.414Z,10.90
2019-03-20T09:46:23.918Z,10.90
2019-03-20T09:48:53.452Z,11.00
2019-03-20T09:51:22.941Z,11.10
2019-03-20T09:53:52.569Z,11.10
2019-03-20T09:56:22.094Z,11.10
2019-03-20T09:58:51.627Z,11.10
2019-03-20T10:01:21.155Z,11.10
2019-03-20T10:03:50.731Z,10.90
2019-03-20T10:06:20.260Z,10.80
2019-03-20T10:08:54.050Z,10.80
2019-03-20T10:11:20.982Z,10.80
2019-03-20T10:13:50.534Z,10.80
2019-03-20T10:16:20.041Z,10.70
2019-03-20T10:18:49.537Z,10.80
2019-03-20T10:21:19.080Z,11.00
2019-03-20T10:23:48.574Z,11.00
2019-03-20T10:26:18.079Z,11.10
2019-03-20T10:28:47.630Z,11.20
2019-03-20T10:31:17.122Z,11.20
2019-03-20T10:33:47.626Z,11.40
2019-03-20T10:36:17.217Z,11.50
2019-03-20T10:38:48.723Z,11.70
2019-03-20T10:41:18.353Z,11.80
2019-03-20T10:43:47.897Z,11.90
2019-03-20T10:46:17.419Z,12.00
2019-03-20T10:48:46.926Z,12.30
2019-03-20T10:51:16.436Z,12.50
2019-03-20T10:53:46.866Z,12.70
2019-03-20T10:56:16.370Z,12.80
2019-03-20T10:58:45.906Z,13.00
2019-03-20T11:01:15.411Z,13.00
2019-03-20T11:03:44.942Z,13.10
2019-03-20T11:06:14.984Z,13.30
2019-03-20T11:08:44.538Z,13.40
2019-03-20T11:11:14.041Z,13.40
2019-03-20T11:13:43.613Z,13.50
2019-03-20T11:16:13.502Z,13.50
2019-03-20T11:18:43.001Z,13.50
2019-03-20T11:21:12.509Z,13.50
2019-03-20T11:23:42.070Z,13.40
2019-03-20T11:26:11.584Z,13.20
2019-03-20T11:28:41.323Z,13.20
2019-03-20T11:31:10.866Z,13.20
2019-03-20T11:33:40.396Z,13.20
2019-03-20T11:36:09.920Z,13.20
2019-03-20T11:38:39.416Z,13.30
2019-03-20T11:41:08.904Z,13.30
2019-03-20T11:43:39.434Z,13.50
2019-03-20T11:46:09.131Z,13.60
2019-03-20T11:48:38.666Z,13.70
2019-03-20T11:51:08.351Z,13.70
2019-03-20T11:53:37.891Z,13.80
2019-03-20T11:56:07.418Z,14.00
2019-03-20T11:58:36.960Z,14.10
2019-03-20T12:01:06.492Z,14.00
2019-03-20T12:03:36.026Z,14.00
2019-03-20T12:06:05.603Z,14.00
2019-03-20T12:08:35.543Z,13.90
2019-03-20T12:11:05.051Z,13.90
2019-03-20T12:13:34.584Z,14.00
2019-03-20T12:16:04.257Z,14.00
2019-03-20T12:18:33.761Z,14.00
2019-03-20T12:21:03.461Z,14.00
2019-03-20T12:23:33.862Z,14.00
2019-03-20T12:26:03.560Z,14.10
2019-03-20T12:28:33.073Z,14.00
2019-03-20T12:31:02.643Z,14.00
2019-03-20T12:33:32.208Z,14.00
2019-03-20T12:36:01.737Z,14.00
2019-03-20T12:38:31.268Z,14.00
2019-03-20T12:41:00.957Z,14.10
2019-03-20T12:43:30.515Z,14.10
2019-03-20T12:46:00.088Z,14.00
2019-03-20T12:48:29.617Z,14.00
2019-03-20T12:50:59.143Z,14.10
2019-03-20T12:53:35.788Z,14.10
2019-03-20T12:56:05.578Z,14.20
2019-03-20T12:58:35.071Z,14.10
2019-03-20T13:01:05.400Z,14.20
2019-03-20T13:03:34.929Z,14.10
2019-03-20T13:06:04.427Z,14.10
2019-03-20T13:08:33.946Z,14.20
2019-03-20T13:11:03.515Z,14.40
2019-03-20T13:13:33.089Z,14.30
2019-03-20T13:16:02.646Z,14.20
2019-03-20T13:18:32.143Z,14.10
2019-03-20T13:21:01.706Z,14.10
2019-03-20T13:23:36.369Z,14.20
2019-03-20T13:26:06.006Z,14.20
2019-03-20T13:28:35.551Z,14.10
2019-03-20T13:31:17.309Z,14.10
2019-03-20T13:33:49.054Z,14.20
2019-03-20T13:36:18.122Z,14.10
2019-03-20T13:38:47.821Z,14.00
2019-03-20T13:41:17.329Z,14.00
2019-03-20T13:43:46.829Z,13.80
2019-03-20T13:46:16.536Z,13.80
2019-03-20T13:48:46.043Z,13.80
2019-03-20T13:51:15.543Z,13.70
2019-03-20T13:53:45.079Z,13.50
2019-03-20T13:56:14.573Z,13.50
2019-03-20T13:58:44.076Z,13.60
2019-03-20T14:01:13.587Z,13.70
2019-03-20T14:03:43.092Z,13.60
2019-03-20T14:06:12.609Z,13.70
2019-03-20T14:08:42.210Z,13.70
2019-03-20T14:11:11.709Z,13.70
2019-03-20T14:13:41.243Z,13.70
2019-03-20T14:16:10.793Z,13.70
2019-03-20T14:18:40.293Z,13.60
2019-03-20T14:21:09.842Z,13.70
2019-03-20T14:23:39.343Z,13.70
2019-03-20T14:26:08.840Z,13.70
2019-03-20T14:28:38.382Z,13.70
2019-03-20T14:31:07.885Z,13.80
2019-03-20T14:33:37.372Z,13.80
2019-03-20T14:36:06.922Z,13.90
2019-03-20T14:38:36.433Z,13.90
2019-03-20T14:41:05.924Z,14.00
2019-03-20T14:43:35.453Z,13.90
2019-03-20T14:46:05.045Z,14.00
2019-03-20T14:48:34.544Z,14.00
2019-03-20T14:51:04.129Z,14.10
2019-03-20T14:53:33.633Z,14.10
2019-03-20T14:56:03.160Z,14.00
2019-03-20T14:58:32.666Z,14.10
2019-03-20T15:01:02.160Z,14.20
2019-03-20T15:03:31.688Z,14.20
2019-03-20T15:06:01.215Z,14.10
2019-03-20T15:08:30.724Z,14.20
2019-03-20T15:11:00.276Z,14.20
2019-03-20T15:13:29.782Z,14.30
2019-03-20T15:16:05.372Z,14.30
2019-03-20T15:18:35.079Z,14.30
2019-03-20T15:21:04.587Z,14.20
2019-03-20T15:23:34.085Z,14.20
2019-03-20T15:26:03.612Z,14.20
2019-03-20T15:28:33.132Z,14.10
2019-03-20T15:31:02.643Z,14.00
2019-03-20T15:33:32.190Z,14.00
2019-03-20T15:36:01.700Z,13.90
2019-03-20T15:38:31.190Z,13.90
2019-03-20T15:41:00.722Z,14.00
2019-03-20T15:43:30.222Z,14.00
2019-03-20T15:45:59.731Z,13.90
2019-03-20T15:48:29.752Z,13.80
2019-03-20T15:50:59.330Z,13.90
2019-03-20T15:53:28.842Z,13.80
2019-03-20T15:55:58.341Z,13.70
2019-03-20T15:58:27.878Z,13.70
2019-03-20T16:00:57.376Z,13.70
2019-03-20T16:03:33.332Z,13.70
2019-03-20T16:06:02.850Z,13.60
2019-03-20T16:08:32.370Z,13.70
2019-03-20T16:11:06.641Z,13.70
2019-03-20T16:13:33.115Z,13.70
2019-03-20T16:16:02.625Z,13.70
2019-03-20T16:18:32.187Z,13.60
2019-03-20T16:21:01.684Z,13.70
2019-03-20T16:23:31.359Z,13.60
2019-03-20T16:26:02.636Z,13.60
2019-03-20T16:28:32.153Z,13.50
2019-03-20T16:31:01.845Z,13.50
2019-03-20T16:33:31.411Z,13.40
2019-03-20T16:36:00.913Z,13.40
2019-03-20T16:38:30.458Z,13.40
2019-03-20T16:40:59.951Z,13.30
2019-03-20T16:43:29.552Z,13.30
2019-03-20T16:45:59.057Z,13.30
2019-03-20T16:48:28.564Z,13.30
2019-03-20T16:50:58.090Z,13.30
2019-03-20T16:53:27.599Z,13.30
2019-03-20T16:55:57.106Z,13.30
2019-03-20T16:58:26.638Z,13.20
2019-03-20T17:00:56.173Z,13.20
2019-03-20T17:03:25.672Z,13.20
2019-03-20T17:05:55.217Z,13.10
2019-03-20T17:08:24.770Z,13.10
2019-03-20T17:10:54.257Z,13.00
2019-03-20T17:13:23.764Z,12.90
2019-03-20T17:15:53.289Z,12.90
2019-03-20T17:18:22.833Z,12.90
2019-03-20T17:20:52.345Z,12.90
2019-03-20T17:23:21.854Z,12.80
2019-03-20T17:25:51.384Z,12.80
2019-03-20T17:28:20.893Z,12.80
2019-03-20T17:30:52.427Z,12.80
2019-03-20T17:33:22.275Z,12.70
2019-03-20T17:35:51.840Z,12.70
2019-03-20T17:38:21.345Z,12.60
2019-03-20T17:40:50.949Z,12.50
2019-03-20T17:43:20.479Z,12.50
2019-03-20T17:45:49.987Z,12.50
2019-03-20T17:48:19.484Z,12.40
2019-03-20T17:50:49.018Z,12.40
2019-03-20T17:53:18.523Z,12.30
2019-03-20T17:55:48.058Z,12.30
2019-03-20T17:58:17.549Z,12.30
2019-03-20T18:00:51.150Z,12.20
2019-03-20T18:03:20.721Z,12.20
2019-03-20T18:05:50.357Z,12.20
2019-03-20T18:08:19.866Z,12.10
2019-03-20T18:10:49.346Z,12.00
2019-03-20T18:13:18.877Z,12.00
2019-03-20T18:15:48.377Z,12.00
2019-03-20T18:18:17.894Z,11.90
2019-03-20T18:20:47.474Z,11.90
2019-03-20T18:23:16.994Z,11.80
2019-03-20T18:25:46.590Z,11.80
2019-03-20T18:28:16.097Z,11.70
2019-03-20T18:30:45.672Z,11.70
2019-03-20T18:33:15.214Z,11.60
2019-03-20T18:35:44.713Z,11.50
2019-03-20T18:38:14.302Z,11.40
2019-03-20T18:40:43.828Z,11.40
2019-03-20T18:43:13.417Z,11.30
2019-03-20T18:45:42.916Z,11.30
2019-03-20T18:48:12.441Z,11.20
2019-03-20T18:50:41.985Z,11.20
2019-03-20T18:53:11.514Z,11.10
2019-03-20T18:55:41.196Z,11.10
2019-03-20T18:58:10.709Z,11.10
2019-03-20T19:00:40.211Z,11.00
2019-03-20T19:03:18.218Z,11.00
2019-03-20T19:05:53.795Z,11.00
2019-03-20T19:08:23.413Z,10.90
2019-03-20T19:10:53.092Z,10.90
2019-03-20T19:13:24.461Z,10.90
2019-03-20T19:15:53.876Z,10.90
2019-03-20T19:18:23.489Z,10.90
2019-03-20T19:20:53.056Z,10.80
2019-03-20T19:23:22.590Z,10.80
2019-03-20T19:25:52.123Z,10.80
2019-03-20T19:28:21.705Z,10.80
2019-03-20T19:30:51.290Z,10.70
2019-03-20T19:33:20.871Z,10.70
2019-03-20T19:35:50.370Z,10.70
2019-03-20T19:38:20.134Z,10.70
2019-03-20T19:40:49.632Z,10.70
2019-03-20T19:43:19.122Z,10.70
2019-03-20T19:45:48.665Z,10.70
2019-03-20T19:48:18.172Z,10.70
2019-03-20T19:50:47.702Z,10.70
2019-03-20T19:53:17.242Z,10.70
2019-03-20T19:55:46.770Z,10.70
2019-03-20T19:58:16.298Z,10.70
2019-03-20T20:00:45.826Z,10.70
2019-03-20T20:03:15.338Z,10.80
2019-03-20T20:05:44.884Z,10.70
2019-03-20T20:08:14.386Z,10.70
2019-03-20T20:10:43.992Z,10.70
2019-03-20T20:13:13.488Z,10.70
2019-03-20T20:15:43.310Z,10.70
2019-03-20T20:18:12.806Z,10.70
2019-03-20T20:20:42.355Z,10.70
2019-03-20T20:23:11.910Z,10.70
2019-03-20T20:25:41.593Z,10.70
2019-03-20T20:28:11.597Z,10.70
2019-03-20T20:30:41.249Z,10.70
2019-03-20T20:33:10.755Z,10.70
2019-03-20T20:35:40.262Z,10.70
2019-03-20T20:38:09.809Z,10.70
2019-03-20T20:40:39.305Z,10.70
2019-03-20T20:43:08.792Z,10.70
2019-03-20T20:45:38.325Z,10.70
2019-03-20T20:48:07.858Z,10.70
2019-03-20T20:50:37.379Z,10.70
2019-03-20T20:53:07.081Z,10.70
2019-03-20T20:55:36.637Z,10.70
2019-03-20T20:58:06.136Z,10.70
2019-03-20T21:00:35.666Z,10.70
2019-03-20T21:03:05.238Z,10.70
2019-03-20T21:05:34.750Z,10.70
2019-03-20T21:08:04.289Z,10.60
2019-03-20T21:10:33.965Z,10.70
2019-03-20T21:13:03.568Z,10.60
2019-03-20T21:15:41.536Z,10.60
2019-03-20T21:18:33.330Z,10.60
2019-03-20T21:21:04.251Z,10.60
2019-03-20T21:23:39.762Z,10.60
2019-03-20T21:26:15.172Z,10.60
2019-03-20T21:29:22.053Z,10.60
2019-03-20T21:32:06.401Z,10.60
2019-03-20T21:34:58.435Z,10.60
2019-03-20T21:37:51.829Z,10.60
2019-03-20T21:40:21.497Z,10.60
2019-03-20T21:43:13.440Z,10.60
2019-03-20T21:46:05.165Z,10.60
2019-03-20T21:48:34.794Z,10.60
2019-03-20T21:51:14.016Z,10.50
2019-03-20T21:54:04.656Z,10.50
2019-03-20T21:57:06.618Z,10.50
2019-03-20T21:59:59.988Z,10.50
2019-03-20T22:02:43.759Z,10.50
2019-03-20T22:05:23.265Z,10.50
2019-03-20T22:07:53.042Z,10.50
2019-03-20T22:10:28.411Z,10.50
2019-03-20T22:13:19.135Z,10.50
2019-03-20T22:15:54.750Z,10.50
2019-03-20T22:19:00.215Z,10.50
2019-03-20T22:21:41.928Z,10.40
2019-03-20T22:24:39.882Z,10.50
2019-03-20T22:27:34.608Z,10.50
2019-03-20T22:30:06.299Z,10.50
2019-03-20T22:32:56.954Z,10.50
2019-03-20T22:35:29.719Z,10.50
2019-03-20T22:38:00.586Z,10.40
2019-03-20T22:40:52.410Z,10.40
2019-03-20T22:43:30.540Z,10.40
2019-03-20T22:46:22.863Z,10.40
2019-03-20T22:48:58.304Z,10.30
2019-03-20T22:51:45.675Z,10.30
2019-03-20T22:54:46.522Z,10.30
2019-03-20T22:57:31.104Z,10.20
2019-03-20T23:00:00.619Z,10.10
2019-03-20T23:02:55.794Z,10.10
2019-03-20T23:05:25.331Z,10.00
2019-03-20T23:07:54.854Z,9.90
2019-03-20T23:10:24.462Z,9.90
2019-03-20T23:12:53.989Z,9.90
2019-03-20T23:15:23.573Z,9.80
2019-03-20T23:17:53.111Z,9.80
2019-03-20T23:20:25.655Z,9.80
2019-03-20T23:22:55.223Z,9.80
2019-03-20T23:25:24.734Z,9.80
2019-03-20T23:27:54.259Z,9.80
2019-03-20T23:30:26.916Z,9.80
2019-03-20T23:32:56.444Z,9.80
2019-03-20T23:35:25.985Z,9.80
2019-03-20T23:37:55.561Z,9.70
2019-03-20T23:40:25.089Z,9.70
2019-03-20T23:42:57.549Z,9.60
2019-03-20T23:45:27.065Z,9.50
2019-03-20T23:48:02.181Z,9.50
2019-03-20T23:50:31.806Z,9.40
2019-03-20T23:53:01.345Z,9.30
2019-03-20T23:55:30.881Z,9.20
2019-03-20T23:58:00.433Z,9.20
